sensor_id;sensor_type;location;lat;lon;timestamp;temperature;humidity
20829;DHT22;10575;50.124;8.582;2023-10-13T00:00:38;16.90;99.90
20829;DHT22;10575;50.124;8.582;2023-10-13T00:03:06;16.90;99.90
20829;DHT22;10575;50.124;8.582;2023-10-13T00:05:40;16.80;99.90
20829;DHT22;10575;50.124;8.582;2023-10-13T00:08:07;16.80;99.90
20829;DHT22;10575;50.124;8.582;2023-10-13T00:10:33;16.70;99.90
20829;DHT22;10575;50.124;8.582;2023-10-13T00:13:02;16.70;99.90
20829;DHT22;10575;50.124;8.582;2023-10-13T00:15:42;16.80;99.90
20829;DHT22;10575;50.124;8.582;2023-10-13T00:18:29;16.80;99.90
20829;DHT22;10575;50.124;8.582;2023-10-13T00:21:08;16.90;99.90
20829;DHT22;10575;50.124;8.582;2023-10-13T00:23:53;16.90;99.90
20829;DHT22;10575;50.124;8.582;2023-10-13T00:26:22;16.90;99.90
20829;DHT22;10575;50.124;8.582;2023-10-13T00:28:59;16.90;99.90
20829;DHT22;10575;50.124;8.582;2023-10-13T00:31:38;16.90;99.90
20829;DHT22;10575;50.124;8.582;2023-10-13T00:34:06;17.00;99.90
20829;DHT22;10575;50.124;8.582;2023-10-13T00:36:41;17.00;99.90
20829;DHT22;10575;50.124;8.582;2023-10-13T00:39:25;17.00;99.90
20829;DHT22;10575;50.124;8.582;2023-10-13T00:41:54;17.00;99.90
20829;DHT22;10575;50.124;8.582;2023-10-13T00:44:24;17.00;99.90
20829;DHT22;10575;50.124;8.582;2023-10-13T00:47:09;17.00;99.90
20829;DHT22;10575;50.124;8.582;2023-10-13T00:49:36;17.00;99.90
20829;DHT22;10575;50.124;8.582;2023-10-13T00:52:06;17.00;99.90
20829;DHT22;10575;50.124;8.582;2023-10-13T00:54:34;17.00;99.90
20829;DHT22;10575;50.124;8.582;2023-10-13T00:57:02;17.00;99.90
20829;DHT22;10575;50.124;8.582;2023-10-13T00:59:37;17.00;99.90
20829;DHT22;10575;50.124;8.582;2023-10-13T01:02:08;17.00;99.90
20829;DHT22;10575;50.124;8.582;2023-10-13T01:05:04;17.00;99.90
20829;DHT22;10575;50.124;8.582;2023-10-13T01:07:29;17.00;99.90
20829;DHT22;10575;50.124;8.582;2023-10-13T01:09:55;17.00;99.90
20829;DHT22;10575;50.124;8.582;2023-10-13T01:12:21;16.90;99.90
20829;DHT22;10575;50.124;8.582;2023-10-13T01:14:49;17.00;99.90
20829;DHT22;10575;50.124;8.582;2023-10-13T01:17:15;16.90;99.90
20829;DHT22;10575;50.124;8.582;2023-10-13T01:19:43;16.90;99.90
20829;DHT22;10575;50.124;8.582;2023-10-13T01:22:13;16.90;99.90
20829;DHT22;10575;50.124;8.582;2023-10-13T01:24:39;16.90;99.90
20829;DHT22;10575;50.124;8.582;2023-10-13T01:27:06;16.90;99.90
20829;DHT22;10575;50.124;8.582;2023-10-13T01:29:46;16.90;99.90
20829;DHT22;10575;50.124;8.582;2023-10-13T01:32:17;16.90;99.90
20829;DHT22;10575;50.124;8.582;2023-10-13T01:34:43;16.90;99.90
20829;DHT22;10575;50.124;8.582;2023-10-13T01:37:11;16.80;99.90
20829;DHT22;10575;50.124;8.582;2023-10-13T01:39:37;16.80;99.90
20829;DHT22;10575;50.124;8.582;2023-10-13T01:42:02;16.80;99.90
20829;DHT22;10575;50.124;8.582;2023-10-13T01:44:29;16.80;99.90
20829;DHT22;10575;50.124;8.582;2023-10-13T01:46:56;16.80;99.90
20829;DHT22;10575;50.124;8.582;2023-10-13T01:49:25;16.80;99.90
20829;DHT22;10575;50.124;8.582;2023-10-13T01:51:50;16.80;99.90
20829;DHT22;10575;50.124;8.582;2023-10-13T01:54:16;16.80;99.90
20829;DHT22;10575;50.124;8.582;2023-10-13T01:56:42;16.70;99.90
20829;DHT22;10575;50.124;8.582;2023-10-13T01:59:11;16.80;99.90
20829;DHT22;10575;50.124;8.582;2023-10-13T02:01:37;16.80;99.90
20829;DHT22;10575;50.124;8.582;2023-10-13T02:04:03;16.90;99.90
20829;DHT22;10575;50.124;8.582;2023-10-13T02:06:30;16.90;99.90
20829;DHT22;10575;50.124;8.582;2023-10-13T02:08:59;17.00;99.90
20829;DHT22;10575;50.124;8.582;2023-10-13T02:11:30;17.00;99.90
20829;DHT22;10575;50.124;8.582;2023-10-13T02:13:56;17.00;99.90
20829;DHT22;10575;50.124;8.582;2023-10-13T02:16:22;17.10;99.90
20829;DHT22;10575;50.124;8.582;2023-10-13T02:18:50;17.10;99.90
20829;DHT22;10575;50.124;8.582;2023-10-13T02:21:19;17.10;99.90
20829;DHT22;10575;50.124;8.582;2023-10-13T02:23:44;17.10;99.90
20829;DHT22;10575;50.124;8.582;2023-10-13T02:26:12;17.10;99.90
20829;DHT22;10575;50.124;8.582;2023-10-13T02:28:42;17.10;99.90
20829;DHT22;10575;50.124;8.582;2023-10-13T02:31:09;17.10;99.90
20829;DHT22;10575;50.124;8.582;2023-10-13T02:33:36;17.00;99.90
20829;DHT22;10575;50.124;8.582;2023-10-13T02:36:10;17.00;99.90
20829;DHT22;10575;50.124;8.582;2023-10-13T02:38:37;16.90;99.90
20829;DHT22;10575;50.124;8.582;2023-10-13T02:41:20;16.90;99.90
20829;DHT22;10575;50.124;8.582;2023-10-13T02:43:53;17.00;99.90
20829;DHT22;10575;50.124;8.582;2023-10-13T02:46:20;17.00;99.90
20829;DHT22;10575;50.124;8.582;2023-10-13T02:48:47;16.90;99.90
20829;DHT22;10575;50.124;8.582;2023-10-13T02:51:19;17.00;99.90
20829;DHT22;10575;50.124;8.582;2023-10-13T02:53:57;17.00;99.90
20829;DHT22;10575;50.124;8.582;2023-10-13T02:56:29;17.00;99.90
20829;DHT22;10575;50.124;8.582;2023-10-13T02:58:54;16.90;99.90
20829;DHT22;10575;50.124;8.582;2023-10-13T03:01:30;16.90;99.90
20829;DHT22;10575;50.124;8.582;2023-10-13T03:03:59;16.90;99.90
20829;DHT22;10575;50.124;8.582;2023-10-13T03:06:25;16.90;99.90
20829;DHT22;10575;50.124;8.582;2023-10-13T03:09:02;16.90;99.90
20829;DHT22;10575;50.124;8.582;2023-10-13T03:11:44;16.90;99.90
20829;DHT22;10575;50.124;8.582;2023-10-13T03:14:15;16.90;99.90
20829;DHT22;10575;50.124;8.582;2023-10-13T03:16:58;16.90;99.90
20829;DHT22;10575;50.124;8.582;2023-10-13T03:19:44;16.90;99.90
20829;DHT22;10575;50.124;8.582;2023-10-13T03:22:15;16.90;99.90
20829;DHT22;10575;50.124;8.582;2023-10-13T03:24:42;17.00;99.90
20829;DHT22;10575;50.124;8.582;2023-10-13T03:27:16;17.00;99.90
20829;DHT22;10575;50.124;8.582;2023-10-13T03:29:44;17.00;99.90
20829;DHT22;10575;50.124;8.582;2023-10-13T03:32:10;17.00;99.90
20829;DHT22;10575;50.124;8.582;2023-10-13T03:34:46;17.00;99.90
20829;DHT22;10575;50.124;8.582;2023-10-13T03:37:19;17.00;99.90
20829;DHT22;10575;50.124;8.582;2023-10-13T03:40:08;17.00;99.90
20829;DHT22;10575;50.124;8.582;2023-10-13T03:42:58;16.90;99.90
20829;DHT22;10575;50.124;8.582;2023-10-13T03:45:42;16.90;99.90
20829;DHT22;10575;50.124;8.582;2023-10-13T03:48:13;16.90;99.90
20829;DHT22;10575;50.124;8.582;2023-10-13T03:50:58;16.90;99.90
20829;DHT22;10575;50.124;8.582;2023-10-13T03:53:37;16.90;99.90
20829;DHT22;10575;50.124;8.582;2023-10-13T03:56:18;17.00;99.90
20829;DHT22;10575;50.124;8.582;2023-10-13T03:58:57;17.00;99.90
20829;DHT22;10575;50.124;8.582;2023-10-13T04:01:29;17.00;99.90
20829;DHT22;10575;50.124;8.582;2023-10-13T04:04:00;16.90;99.90
20829;DHT22;10575;50.124;8.582;2023-10-13T04:06:30;16.80;99.90
20829;DHT22;10575;50.124;8.582;2023-10-13T04:09:23;16.60;99.90
20829;DHT22;10575;50.124;8.582;2023-10-13T04:11:57;16.60;99.90
20829;DHT22;10575;50.124;8.582;2023-10-13T04:14:30;16.60;99.90
20829;DHT22;10575;50.124;8.582;2023-10-13T04:17:07;16.60;99.90
20829;DHT22;10575;50.124;8.582;2023-10-13T04:19:42;16.60;99.90
20829;DHT22;10575;50.124;8.582;2023-10-13T04:22:27;16.70;99.90
20829;DHT22;10575;50.124;8.582;2023-10-13T04:25:17;16.80;99.90
20829;DHT22;10575;50.124;8.582;2023-10-13T04:28:07;16.90;99.90
20829;DHT22;10575;50.124;8.582;2023-10-13T04:30:39;17.00;99.90
20829;DHT22;10575;50.124;8.582;2023-10-13T04:33:26;17.00;99.90
20829;DHT22;10575;50.124;8.582;2023-10-13T04:36:15;17.00;99.90
20829;DHT22;10575;50.124;8.582;2023-10-13T04:38:55;16.90;99.90
20829;DHT22;10575;50.124;8.582;2023-10-13T04:41:42;16.90;99.90
20829;DHT22;10575;50.124;8.582;2023-10-13T04:44:13;16.90;99.90
20829;DHT22;10575;50.124;8.582;2023-10-13T04:47:13;17.00;99.90
20829;DHT22;10575;50.124;8.582;2023-10-13T04:49:47;17.10;99.90
20829;DHT22;10575;50.124;8.582;2023-10-13T04:52:12;17.00;99.90
20829;DHT22;10575;50.124;8.582;2023-10-13T04:54:42;17.00;99.90
20829;DHT22;10575;50.124;8.582;2023-10-13T04:57:15;17.00;99.90
20829;DHT22;10575;50.124;8.582;2023-10-13T05:00:04;17.00;99.90
20829;DHT22;10575;50.124;8.582;2023-10-13T05:02:46;17.00;99.90
20829;DHT22;10575;50.124;8.582;2023-10-13T05:05:27;17.10;99.90
20829;DHT22;10575;50.124;8.582;2023-10-13T05:08:31;17.10;99.90
20829;DHT22;10575;50.124;8.582;2023-10-13T05:11:15;17.00;99.90
20829;DHT22;10575;50.124;8.582;2023-10-13T05:13:58;17.00;99.90
20829;DHT22;10575;50.124;8.582;2023-10-13T05:16:42;17.00;99.90
20829;DHT22;10575;50.124;8.582;2023-10-13T05:19:27;17.00;99.90
20829;DHT22;10575;50.124;8.582;2023-10-13T05:22:11;17.00;99.90
20829;DHT22;10575;50.124;8.582;2023-10-13T05:24:59;17.00;99.90
20829;DHT22;10575;50.124;8.582;2023-10-13T05:27:43;16.90;99.90
20829;DHT22;10575;50.124;8.582;2023-10-13T05:30:27;16.90;99.90
20829;DHT22;10575;50.124;8.582;2023-10-13T05:33:11;16.90;99.90
20829;DHT22;10575;50.124;8.582;2023-10-13T05:35:55;16.90;99.90
20829;DHT22;10575;50.124;8.582;2023-10-13T05:38:39;17.00;99.90
20829;DHT22;10575;50.124;8.582;2023-10-13T05:41:23;17.00;99.90
20829;DHT22;10575;50.124;8.582;2023-10-13T05:44:07;16.90;99.90
20829;DHT22;10575;50.124;8.582;2023-10-13T05:46:51;16.90;99.90
20829;DHT22;10575;50.124;8.582;2023-10-13T05:49:36;17.00;99.90
20829;DHT22;10575;50.124;8.582;2023-10-13T05:52:30;16.90;99.90
20829;DHT22;10575;50.124;8.582;2023-10-13T05:55:14;16.80;99.90
20829;DHT22;10575;50.124;8.582;2023-10-13T05:57:58;16.80;99.90
20829;DHT22;10575;50.124;8.582;2023-10-13T06:00:42;16.90;99.90
20829;DHT22;10575;50.124;8.582;2023-10-13T06:03:25;16.90;99.90
20829;DHT22;10575;50.124;8.582;2023-10-13T06:06:09;17.00;99.90
20829;DHT22;10575;50.124;8.582;2023-10-13T06:08:53;17.10;99.90
20829;DHT22;10575;50.124;8.582;2023-10-13T06:11:37;17.10;99.90
20829;DHT22;10575;50.124;8.582;2023-10-13T06:14:21;17.10;99.90
20829;DHT22;10575;50.124;8.582;2023-10-13T06:17:05;17.20;99.90
20829;DHT22;10575;50.124;8.582;2023-10-13T06:19:49;17.20;99.90
20829;DHT22;10575;50.124;8.582;2023-10-13T06:22:33;17.20;99.90
20829;DHT22;10575;50.124;8.582;2023-10-13T06:25:17;17.20;99.90
20829;DHT22;10575;50.124;8.582;2023-10-13T06:28:02;17.30;99.90
20829;DHT22;10575;50.124;8.582;2023-10-13T06:30:57;17.30;99.90
20829;DHT22;10575;50.124;8.582;2023-10-13T06:33:23;17.30;99.90
20829;DHT22;10575;50.124;8.582;2023-10-13T06:35:56;17.40;99.90
20829;DHT22;10575;50.124;8.582;2023-10-13T06:38:22;17.40;99.90
20829;DHT22;10575;50.124;8.582;2023-10-13T06:40:48;17.50;99.90
20829;DHT22;10575;50.124;8.582;2023-10-13T06:43:16;17.60;99.90
20829;DHT22;10575;50.124;8.582;2023-10-13T06:45:45;17.60;99.90
20829;DHT22;10575;50.124;8.582;2023-10-13T06:48:16;17.70;99.90
20829;DHT22;10575;50.124;8.582;2023-10-13T06:50:48;17.70;99.90
20829;DHT22;10575;50.124;8.582;2023-10-13T06:53:14;17.80;99.90
20829;DHT22;10575;50.124;8.582;2023-10-13T06:55:41;17.90;99.90
20829;DHT22;10575;50.124;8.582;2023-10-13T06:58:12;18.00;99.90
20829;DHT22;10575;50.124;8.582;2023-10-13T07:00:39;18.10;99.90
20829;DHT22;10575;50.124;8.582;2023-10-13T07:03:07;18.10;99.90
20829;DHT22;10575;50.124;8.582;2023-10-13T07:05:43;18.20;99.90
20829;DHT22;10575;50.124;8.582;2023-10-13T07:08:09;18.30;99.90
20829;DHT22;10575;50.124;8.582;2023-10-13T07:10:35;18.40;99.90
20829;DHT22;10575;50.124;8.582;2023-10-13T07:13:14;18.40;99.90
20829;DHT22;10575;50.124;8.582;2023-10-13T07:15:42;18.50;99.90
20829;DHT22;10575;50.124;8.582;2023-10-13T07:18:14;18.60;99.90
20829;DHT22;10575;50.124;8.582;2023-10-13T07:20:45;18.70;99.90
20829;DHT22;10575;50.124;8.582;2023-10-13T07:23:11;18.80;99.90
20829;DHT22;10575;50.124;8.582;2023-10-13T07:25:50;18.70;99.90
20829;DHT22;10575;50.124;8.582;2023-10-13T07:28:16;18.60;99.90
20829;DHT22;10575;50.124;8.582;2023-10-13T07:30:41;18.70;99.90
20829;DHT22;10575;50.124;8.582;2023-10-13T07:33:17;18.70;99.90
20829;DHT22;10575;50.124;8.582;2023-10-13T07:35:46;18.80;99.90
20829;DHT22;10575;50.124;8.582;2023-10-13T07:38:17;18.70;99.90
20829;DHT22;10575;50.124;8.582;2023-10-13T07:40:43;18.80;99.90
20829;DHT22;10575;50.124;8.582;2023-10-13T07:43:18;18.90;99.90
20829;DHT22;10575;50.124;8.582;2023-10-13T07:45:47;19.10;99.90
20829;DHT22;10575;50.124;8.582;2023-10-13T07:48:23;19.10;99.90
20829;DHT22;10575;50.124;8.582;2023-10-13T07:51:02;19.40;99.90
20829;DHT22;10575;50.124;8.582;2023-10-13T07:53:32;19.60;99.90
20829;DHT22;10575;50.124;8.582;2023-10-13T07:56:04;19.80;99.90
20829;DHT22;10575;50.124;8.582;2023-10-13T07:58:38;19.90;99.90
20829;DHT22;10575;50.124;8.582;2023-10-13T08:01:20;20.00;99.90
20829;DHT22;10575;50.124;8.582;2023-10-13T08:03:46;20.20;99.90
20829;DHT22;10575;50.124;8.582;2023-10-13T08:06:13;20.40;99.90
20829;DHT22;10575;50.124;8.582;2023-10-13T08:08:39;20.50;99.90
20829;DHT22;10575;50.124;8.582;2023-10-13T08:11:09;20.40;99.90
20829;DHT22;10575;50.124;8.582;2023-10-13T08:13:51;20.40;99.90
20829;DHT22;10575;50.124;8.582;2023-10-13T08:16:20;20.50;99.90
20829;DHT22;10575;50.124;8.582;2023-10-13T08:18:50;20.70;99.90
20829;DHT22;10575;50.124;8.582;2023-10-13T08:21:17;21.00;99.90
20829;DHT22;10575;50.124;8.582;2023-10-13T08:23:43;21.40;99.90
20829;DHT22;10575;50.124;8.582;2023-10-13T08:26:22;21.70;99.90
20829;DHT22;10575;50.124;8.582;2023-10-13T08:29:06;22.20;99.90
20829;DHT22;10575;50.124;8.582;2023-10-13T08:31:47;22.70;99.90
20829;DHT22;10575;50.124;8.582;2023-10-13T08:34:33;22.90;99.90
20829;DHT22;10575;50.124;8.582;2023-10-13T08:37:14;23.10;99.90
20829;DHT22;10575;50.124;8.582;2023-10-13T08:39:53;24.10;99.90
20829;DHT22;10575;50.124;8.582;2023-10-13T08:42:38;25.40;99.90
20829;DHT22;10575;50.124;8.582;2023-10-13T08:45:11;25.80;99.90
20829;DHT22;10575;50.124;8.582;2023-10-13T08:47:52;25.40;99.90
20829;DHT22;10575;50.124;8.582;2023-10-13T08:53:27;25.00;99.90
20829;DHT22;10575;50.124;8.582;2023-10-13T08:56:01;24.80;99.90
20829;DHT22;10575;50.124;8.582;2023-10-13T08:58:27;25.60;99.90
20829;DHT22;10575;50.124;8.582;2023-10-13T09:01:13;27.60;99.90
20829;DHT22;10575;50.124;8.582;2023-10-13T09:03:40;28.70;99.90
20829;DHT22;10575;50.124;8.582;2023-10-13T09:06:13;28.70;99.90
20829;DHT22;10575;50.124;8.582;2023-10-13T09:08:45;28.80;99.90
20829;DHT22;10575;50.124;8.582;2023-10-13T09:11:32;29.80;99.90
20829;DHT22;10575;50.124;8.582;2023-10-13T09:14:02;31.00;99.90
20829;DHT22;10575;50.124;8.582;2023-10-13T09:16:29;30.80;99.90
20829;DHT22;10575;50.124;8.582;2023-10-13T09:19:06;29.70;99.90
20829;DHT22;10575;50.124;8.582;2023-10-13T09:21:41;28.60;99.90
20829;DHT22;10575;50.124;8.582;2023-10-13T09:24:11;26.90;99.90
20829;DHT22;10575;50.124;8.582;2023-10-13T09:27:09;26.20;99.90
20829;DHT22;10575;50.124;8.582;2023-10-13T09:29:38;25.50;99.90
20829;DHT22;10575;50.124;8.582;2023-10-13T09:32:07;25.00;99.90
20829;DHT22;10575;50.124;8.582;2023-10-13T09:34:37;24.40;99.90
20829;DHT22;10575;50.124;8.582;2023-10-13T09:37:10;24.00;99.90
20829;DHT22;10575;50.124;8.582;2023-10-13T09:39:37;23.50;99.90
20829;DHT22;10575;50.124;8.582;2023-10-13T09:42:26;23.00;99.90
20829;DHT22;10575;50.124;8.582;2023-10-13T09:44:51;23.10;99.90
20829;DHT22;10575;50.124;8.582;2023-10-13T09:47:22;23.10;99.90
20829;DHT22;10575;50.124;8.582;2023-10-13T09:50:02;23.40;99.90
20829;DHT22;10575;50.124;8.582;2023-10-13T09:52:31;23.20;99.90
20829;DHT22;10575;50.124;8.582;2023-10-13T09:55:09;23.30;99.90
20829;DHT22;10575;50.124;8.582;2023-10-13T09:57:43;23.40;99.90
20829;DHT22;10575;50.124;8.582;2023-10-13T10:00:16;23.40;99.90
20829;DHT22;10575;50.124;8.582;2023-10-13T10:02:55;23.30;99.90
20829;DHT22;10575;50.124;8.582;2023-10-13T10:05:27;23.40;99.90
20829;DHT22;10575;50.124;8.582;2023-10-13T10:07:56;23.30;99.90
20829;DHT22;10575;50.124;8.582;2023-10-13T10:10:32;23.40;99.90
20829;DHT22;10575;50.124;8.582;2023-10-13T10:13:20;23.40;99.90
20829;DHT22;10575;50.124;8.582;2023-10-13T10:15:51;23.20;99.90
20829;DHT22;10575;50.124;8.582;2023-10-13T10:18:21;23.20;99.90
20829;DHT22;10575;50.124;8.582;2023-10-13T10:21:06;23.50;99.90
20829;DHT22;10575;50.124;8.582;2023-10-13T10:23:35;23.70;99.90
20829;DHT22;10575;50.124;8.582;2023-10-13T10:26:15;23.80;99.90
20829;DHT22;10575;50.124;8.582;2023-10-13T10:28:47;24.00;99.90
20829;DHT22;10575;50.124;8.582;2023-10-13T10:31:13;24.10;99.90
20829;DHT22;10575;50.124;8.582;2023-10-13T10:33:40;23.80;99.90
20829;DHT22;10575;50.124;8.582;2023-10-13T10:36:07;23.90;99.90
20829;DHT22;10575;50.124;8.582;2023-10-13T10:38:55;23.80;99.90
20829;DHT22;10575;50.124;8.582;2023-10-13T10:41:28;23.80;99.90
20829;DHT22;10575;50.124;8.582;2023-10-13T10:44:17;23.90;99.90
20829;DHT22;10575;50.124;8.582;2023-10-13T10:46:48;23.80;99.90
20829;DHT22;10575;50.124;8.582;2023-10-13T10:49:26;23.80;99.90
20829;DHT22;10575;50.124;8.582;2023-10-13T10:52:00;23.70;99.90
20829;DHT22;10575;50.124;8.582;2023-10-13T10:54:31;23.60;99.90
20829;DHT22;10575;50.124;8.582;2023-10-13T10:56:58;23.60;99.90
20829;DHT22;10575;50.124;8.582;2023-10-13T10:59:37;23.60;99.90
20829;DHT22;10575;50.124;8.582;2023-10-13T11:02:03;23.70;99.90
20829;DHT22;10575;50.124;8.582;2023-10-13T11:04:29;23.70;99.90
20829;DHT22;10575;50.124;8.582;2023-10-13T11:07:06;23.80;99.90
20829;DHT22;10575;50.124;8.582;2023-10-13T11:09:33;23.80;99.90
20829;DHT22;10575;50.124;8.582;2023-10-13T11:12:15;24.00;99.90
20829;DHT22;10575;50.124;8.582;2023-10-13T11:14:44;24.20;99.90
20829;DHT22;10575;50.124;8.582;2023-10-13T11:17:22;24.20;99.90
20829;DHT22;10575;50.124;8.582;2023-10-13T11:19:54;24.30;99.90
20829;DHT22;10575;50.124;8.582;2023-10-13T11:22:22;24.10;99.90
20829;DHT22;10575;50.124;8.582;2023-10-13T11:25:08;23.90;99.90
20829;DHT22;10575;50.124;8.582;2023-10-13T11:27:37;23.70;99.90
20829;DHT22;10575;50.124;8.582;2023-10-13T11:30:15;23.60;99.90
20829;DHT22;10575;50.124;8.582;2023-10-13T11:32:45;23.60;99.90
20829;DHT22;10575;50.124;8.582;2023-10-13T11:35:12;23.60;99.90
20829;DHT22;10575;50.124;8.582;2023-10-13T11:37:47;23.50;99.90
20829;DHT22;10575;50.124;8.582;2023-10-13T11:40:22;23.50;99.90
20829;DHT22;10575;50.124;8.582;2023-10-13T11:43:08;23.60;99.90
20829;DHT22;10575;50.124;8.582;2023-10-13T11:45:47;23.90;99.90
20829;DHT22;10575;50.124;8.582;2023-10-13T11:48:31;24.10;99.90
20829;DHT22;10575;50.124;8.582;2023-10-13T11:51:04;24.10;99.90
20829;DHT22;10575;50.124;8.582;2023-10-13T11:53:36;24.10;99.90
20829;DHT22;10575;50.124;8.582;2023-10-13T11:56:02;24.20;99.90
20829;DHT22;10575;50.124;8.582;2023-10-13T11:58:38;24.20;99.90
20829;DHT22;10575;50.124;8.582;2023-10-13T12:01:05;24.30;99.90
20829;DHT22;10575;50.124;8.582;2023-10-13T12:03:43;24.30;99.90
20829;DHT22;10575;50.124;8.582;2023-10-13T12:06:28;24.60;99.90
20829;DHT22;10575;50.124;8.582;2023-10-13T12:09:04;24.70;99.90
20829;DHT22;10575;50.124;8.582;2023-10-13T12:11:49;24.80;99.90
20829;DHT22;10575;50.124;8.582;2023-10-13T12:14:19;24.70;99.90
20829;DHT22;10575;50.124;8.582;2023-10-13T12:16:50;24.40;99.90
20829;DHT22;10575;50.124;8.582;2023-10-13T12:19:25;24.20;99.90
20829;DHT22;10575;50.124;8.582;2023-10-13T12:21:53;24.10;99.90
20829;DHT22;10575;50.124;8.582;2023-10-13T12:24:27;24.10;99.90
20829;DHT22;10575;50.124;8.582;2023-10-13T12:27:06;24.00;99.90
20829;DHT22;10575;50.124;8.582;2023-10-13T12:29:51;24.20;99.90
20829;DHT22;10575;50.124;8.582;2023-10-13T12:32:21;24.20;99.90
20829;DHT22;10575;50.124;8.582;2023-10-13T12:34:56;24.30;99.90
20829;DHT22;10575;50.124;8.582;2023-10-13T12:37:25;24.40;99.90
20829;DHT22;10575;50.124;8.582;2023-10-13T12:40:04;24.60;99.90
20829;DHT22;10575;50.124;8.582;2023-10-13T12:42:48;24.70;99.90
20829;DHT22;10575;50.124;8.582;2023-10-13T12:45:32;24.70;99.90
20829;DHT22;10575;50.124;8.582;2023-10-13T12:48:16;24.70;99.90
20829;DHT22;10575;50.124;8.582;2023-10-13T12:51:01;24.80;99.90
20829;DHT22;10575;50.124;8.582;2023-10-13T12:53:48;24.80;99.90
20829;DHT22;10575;50.124;8.582;2023-10-13T12:56:14;24.70;99.90
20829;DHT22;10575;50.124;8.582;2023-10-13T12:58:40;24.70;99.90
20829;DHT22;10575;50.124;8.582;2023-10-13T13:01:07;24.70;99.90
20829;DHT22;10575;50.124;8.582;2023-10-13T13:03:32;24.80;99.90
20829;DHT22;10575;50.124;8.582;2023-10-13T13:05:58;24.70;99.90
20829;DHT22;10575;50.124;8.582;2023-10-13T13:08:24;24.60;99.90
20829;DHT22;10575;50.124;8.582;2023-10-13T13:10:50;24.60;99.90
20829;DHT22;10575;50.124;8.582;2023-10-13T13:13:16;24.60;99.90
20829;DHT22;10575;50.124;8.582;2023-10-13T13:15:51;24.70;99.90
20829;DHT22;10575;50.124;8.582;2023-10-13T13:18:17;24.90;99.90
20829;DHT22;10575;50.124;8.582;2023-10-13T13:20:44;25.00;99.90
20829;DHT22;10575;50.124;8.582;2023-10-13T13:23:20;24.90;99.90
20829;DHT22;10575;50.124;8.582;2023-10-13T13:25:47;24.70;99.90
20829;DHT22;10575;50.124;8.582;2023-10-13T13:28:12;24.60;99.90
20829;DHT22;10575;50.124;8.582;2023-10-13T13:30:41;24.60;99.90
20829;DHT22;10575;50.124;8.582;2023-10-13T13:33:06;24.70;99.90
20829;DHT22;10575;50.124;8.582;2023-10-13T13:35:39;24.70;99.90
20829;DHT22;10575;50.124;8.582;2023-10-13T13:38:08;24.80;99.90
20829;DHT22;10575;50.124;8.582;2023-10-13T13:40:47;25.00;99.90
20829;DHT22;10575;50.124;8.582;2023-10-13T13:43:15;24.90;99.90
20829;DHT22;10575;50.124;8.582;2023-10-13T13:45:59;25.00;99.90
20829;DHT22;10575;50.124;8.582;2023-10-13T13:48:27;25.10;99.90
20829;DHT22;10575;50.124;8.582;2023-10-13T13:50:53;25.00;99.90
20829;DHT22;10575;50.124;8.582;2023-10-13T13:53:29;24.90;99.90
20829;DHT22;10575;50.124;8.582;2023-10-13T13:56:00;24.60;99.90
20829;DHT22;10575;50.124;8.582;2023-10-13T13:58:25;24.50;99.90
20829;DHT22;10575;50.124;8.582;2023-10-13T14:00:51;24.30;99.90
20829;DHT22;10575;50.124;8.582;2023-10-13T14:03:16;24.20;99.90
20829;DHT22;10575;50.124;8.582;2023-10-13T14:06:00;23.90;99.90
20829;DHT22;10575;50.124;8.582;2023-10-13T14:08:26;23.80;99.90
20829;DHT22;10575;50.124;8.582;2023-10-13T14:10:55;23.70;99.90
20829;DHT22;10575;50.124;8.582;2023-10-13T14:13:46;23.70;99.90
20829;DHT22;10575;50.124;8.582;2023-10-13T14:16:18;23.80;99.90
20829;DHT22;10575;50.124;8.582;2023-10-13T14:18:47;23.80;99.90
20829;DHT22;10575;50.124;8.582;2023-10-13T14:21:13;23.90;99.90
20829;DHT22;10575;50.124;8.582;2023-10-13T14:23:46;23.90;99.90
20829;DHT22;10575;50.124;8.582;2023-10-13T14:26:15;23.80;99.90
20829;DHT22;10575;50.124;8.582;2023-10-13T14:28:45;23.80;99.90
20829;DHT22;10575;50.124;8.582;2023-10-13T14:31:30;24.00;99.90
20829;DHT22;10575;50.124;8.582;2023-10-13T14:33:56;24.10;99.90
20829;DHT22;10575;50.124;8.582;2023-10-13T14:36:25;24.10;99.90
20829;DHT22;10575;50.124;8.582;2023-10-13T14:38:56;24.00;99.90
20829;DHT22;10575;50.124;8.582;2023-10-13T14:41:22;24.00;99.90
20829;DHT22;10575;50.124;8.582;2023-10-13T14:43:48;23.90;99.90
20829;DHT22;10575;50.124;8.582;2023-10-13T14:46:15;24.00;99.90
20829;DHT22;10575;50.124;8.582;2023-10-13T14:48:44;24.00;99.90
20829;DHT22;10575;50.124;8.582;2023-10-13T14:51:13;23.90;99.90
20829;DHT22;10575;50.124;8.582;2023-10-13T14:53:41;23.90;99.90
20829;DHT22;10575;50.124;8.582;2023-10-13T14:56:11;23.90;99.90
20829;DHT22;10575;50.124;8.582;2023-10-13T14:58:37;23.80;99.90
20829;DHT22;10575;50.124;8.582;2023-10-13T15:01:17;23.80;99.90
20829;DHT22;10575;50.124;8.582;2023-10-13T15:03:44;23.80;99.90
20829;DHT22;10575;50.124;8.582;2023-10-13T15:06:20;23.70;99.90
20829;DHT22;10575;50.124;8.582;2023-10-13T15:08:49;23.70;99.90
20829;DHT22;10575;50.124;8.582;2023-10-13T15:11:14;23.70;99.90
20829;DHT22;10575;50.124;8.582;2023-10-13T15:13:43;23.70;99.90
20829;DHT22;10575;50.124;8.582;2023-10-13T15:16:15;23.60;99.90
20829;DHT22;10575;50.124;8.582;2023-10-13T15:18:53;23.50;99.90
20829;DHT22;10575;50.124;8.582;2023-10-13T15:21:19;23.60;99.90
20829;DHT22;10575;50.124;8.582;2023-10-13T15:23:47;23.70;99.90
20829;DHT22;10575;50.124;8.582;2023-10-13T15:26:12;23.80;99.90
20829;DHT22;10575;50.124;8.582;2023-10-13T15:28:40;23.80;99.90
20829;DHT22;10575;50.124;8.582;2023-10-13T15:31:19;23.80;99.90
20829;DHT22;10575;50.124;8.582;2023-10-13T15:34:01;23.70;99.90
20829;DHT22;10575;50.124;8.582;2023-10-13T15:36:33;23.70;99.90
20829;DHT22;10575;50.124;8.582;2023-10-13T15:38:58;23.70;99.90
20829;DHT22;10575;50.124;8.582;2023-10-13T15:41:26;23.70;99.90
20829;DHT22;10575;50.124;8.582;2023-10-13T15:43:51;23.70;99.90
20829;DHT22;10575;50.124;8.582;2023-10-13T15:46:19;23.60;99.90
20829;DHT22;10575;50.124;8.582;2023-10-13T15:48:51;23.50;99.90
20829;DHT22;10575;50.124;8.582;2023-10-13T15:51:18;23.40;99.90
20829;DHT22;10575;50.124;8.582;2023-10-13T15:53:44;23.30;99.90
20829;DHT22;10575;50.124;8.582;2023-10-13T15:56:13;23.20;99.90
20829;DHT22;10575;50.124;8.582;2023-10-13T15:58:49;23.20;99.90
20829;DHT22;10575;50.124;8.582;2023-10-13T16:01:16;23.10;99.90
20829;DHT22;10575;50.124;8.582;2023-10-13T16:03:42;23.00;99.90
20829;DHT22;10575;50.124;8.582;2023-10-13T16:06:12;23.00;99.90
20829;DHT22;10575;50.124;8.582;2023-10-13T16:08:39;23.00;99.90
20829;DHT22;10575;50.124;8.582;2023-10-13T16:11:14;22.90;99.90
20829;DHT22;10575;50.124;8.582;2023-10-13T16:13:43;22.90;99.90